Time;durP1;ratioP1;P1;durP2;ratioP2;P2;SDS_P1;SDS_P2;PMS_P1;PMS_P2;Temp;Humidity;BMP_temperature;BMP_pressure;BME280_temperature;BME280_humidity;BME280_pressure;Samples;Min_cycle;Max_cycle;Signal;HPM_P1;HPM_P2
2021/07/04 00:00:14;;;;;;;5.03;4.53;;;18.60;99.90;;;;;;5013508;28;20562;-73
2021/07/04 00:02:43;;;;;;;5.60;5.07;;;18.50;99.90;;;;;;5014455;28;20428;-73
2021/07/04 00:05:16;;;;;;;4.87;4.47;;;18.50;99.90;;;;;;5014454;28;20451;-73
2021/07/04 00:07:45;;;;;;;4.77;4.30;;;18.50;99.90;;;;;;5012890;28;20533;-73
2021/07/04 00:10:17;;;;;;;6.87;5.50;;;18.50;99.90;;;;;;5013940;28;20513;-73
2021/07/04 00:12:45;;;;;;;5.67;5.10;;;18.50;99.90;;;;;;5013830;28;20482;-73
2021/07/04 00:15:21;;;;;;;4.90;4.50;;;18.50;99.90;;;;;;5012388;28;20474;-73
2021/07/04 00:17:50;;;;;;;7.67;7.07;;;18.50;99.90;;;;;;5012697;28;21028;-73
2021/07/04 00:20:20;;;;;;;6.10;5.03;;;18.40;99.90;;;;;;5012373;28;20569;-73
2021/07/04 00:22:51;;;;;;;6.23;5.73;;;18.50;99.90;;;;;;5013822;28;20445;-74
2021/07/04 00:25:19;;;;;;;5.43;4.93;;;18.50;99.90;;;;;;5014021;28;20453;-73
2021/07/04 00:27:47;;;;;;;5.95;5.45;;;18.50;99.90;;;;;;5013011;28;20539;-73
2021/07/04 00:30:18;;;;;;;5.83;5.13;;;18.60;99.90;;;;;;5013609;28;20225;-73
2021/07/04 00:32:47;;;;;;;6.80;6.10;;;18.60;99.90;;;;;;5012400;28;20833;-74
2021/07/04 00:35:17;;;;;;;6.40;5.80;;;18.50;99.90;;;;;;5011187;28;20542;-73
2021/07/04 00:37:45;;;;;;;5.90;5.40;;;18.60;99.90;;;;;;5012352;28;20243;-73
2021/07/04 00:40:14;;;;;;;5.70;5.20;;;18.60;99.90;;;;;;5013406;28;20569;-74
2021/07/04 00:42:43;;;;;;;5.93;5.40;;;18.50;99.90;;;;;;5013182;28;20532;-74
2021/07/04 00:45:16;;;;;;;6.17;5.57;;;18.50;99.90;;;;;;5012334;28;20479;-73
2021/07/04 00:47:47;;;;;;;6.80;6.20;;;18.50;99.90;;;;;;5012364;28;20506;-74
2021/07/04 00:50:19;;;;;;;7.43;6.10;;;18.50;99.90;;;;;;5012167;28;20573;-74
2021/07/04 00:52:48;;;;;;;6.00;5.50;;;18.40;99.90;;;;;;5013784;28;20446;-74
2021/07/04 00:55:18;;;;;;;6.27;5.67;;;18.40;99.90;;;;;;5013961;28;20473;-74
2021/07/04 00:57:52;;;;;;;5.23;4.63;;;18.40;99.90;;;;;;5012469;28;20486;-73
2021/07/04 01:00:27;;;;;;;6.27;5.77;;;18.40;99.90;;;;;;5012780;28;20990;-73
2021/07/04 01:02:57;;;;;;;5.43;5.03;;;18.40;99.90;;;;;;4992511;28;20486;-73
2021/07/04 01:05:27;;;;;;;5.70;5.20;;;18.40;99.90;;;;;;5008504;28;20465;-74
2021/07/04 01:07:57;;;;;;;6.07;5.47;;;18.40;99.90;;;;;;5012094;28;20872;-74
2021/07/04 01:10:27;;;;;;;5.43;5.03;;;18.40;99.90;;;;;;5011938;28;20469;-74
2021/07/04 01:13:04;;;;;;;5.97;5.47;;;18.40;99.90;;;;;;5015343;28;20448;-73
2021/07/04 01:15:36;;;;;;;5.23;4.83;;;18.40;99.90;;;;;;5015919;28;20551;-73
2021/07/04 01:18:10;;;;;;;6.10;5.60;;;18.40;99.90;;;;;;5015954;28;20798;-74
2021/07/04 01:20:46;;;;;;;5.77;5.27;;;18.40;99.90;;;;;;5016941;28;20498;-73
2021/07/04 01:23:17;;;;;;;6.10;5.27;;;18.40;99.90;;;;;;5015885;28;20453;-73
2021/07/04 01:25:49;;;;;;;5.83;5.27;;;18.40;99.90;;;;;;5017073;28;20457;-74
2021/07/04 01:28:20;;;;;;;5.63;5.13;;;18.40;99.90;;;;;;5016259;28;20843;-73
2021/07/04 01:30:54;;;;;;;5.20;4.70;;;18.50;99.90;;;;;;5016008;28;20687;-74
2021/07/04 01:33:24;;;;;;;5.23;4.73;;;18.50;99.90;;;;;;5015795;28;20493;-73
2021/07/04 01:35:52;;;;;;;5.50;5.00;;;18.50;99.90;;;;;;5015827;28;20464;-74
2021/07/04 01:38:22;;;;;;;6.07;5.20;;;18.40;99.90;;;;;;5017650;28;20845;-73
2021/07/04 01:40:52;;;;;;;4.50;4.10;;;18.50;99.90;;;;;;5015435;28;20566;-74
2021/07/04 01:43:21;;;;;;;7.13;5.50;;;18.40;99.90;;;;;;5015377;28;20487;-73
2021/07/04 01:45:49;;;;;;;5.50;5.00;;;18.40;99.90;;;;;;5015679;28;20548;-73
2021/07/04 01:48:18;;;;;;;4.87;4.47;;;18.40;99.90;;;;;;5016858;28;20842;-74
2021/07/04 01:50:50;;;;;;;5.87;4.97;;;18.40;99.90;;;;;;5015247;28;20471;-73
2021/07/04 01:53:28;;;;;;;5.10;4.70;;;18.40;99.90;;;;;;5013488;28;20447;-74
2021/07/04 01:56:06;;;;;;;5.40;4.93;;;18.30;99.90;;;;;;5010932;28;20470;-73
2021/07/04 01:58:42;;;;;;;5.67;5.27;;;18.30;99.90;;;;;;5015370;28;20964;-73
2021/07/04 02:01:13;;;;;;;5.20;4.80;;;18.30;99.90;;;;;;5015403;28;20472;-73
2021/07/04 02:03:42;;;;;;;5.40;5.00;;;18.30;99.90;;;;;;5015277;28;20456;-73
2021/07/04 02:06:15;;;;;;;6.40;5.83;;;18.30;99.90;;;;;;5015086;28;20454;-74
2021/07/04 02:08:49;;;;;;;6.13;5.57;;;18.30;99.90;;;;;;5015005;28;20537;-73
2021/07/04 02:11:20;;;;;;;6.10;5.60;;;18.30;99.90;;;;;;5015245;28;20511;-74
2021/07/04 02:13:53;;;;;;;6.73;6.23;;;18.30;99.90;;;;;;5014908;28;20512;-73
2021/07/04 02:16:31;;;;;;;6.90;6.30;;;18.30;99.90;;;;;;5015597;28;20890;-74
2021/07/04 02:19:20;;;;;;;5.90;5.40;;;18.30;99.90;;;;;;5015021;28;21048;-74
2021/07/04 02:21:57;;;;;;;6.57;6.07;;;18.30;99.90;;;;;;5014492;28;20554;-73
2021/07/04 02:24:43;;;;;;;6.37;5.77;;;18.20;99.90;;;;;;5014283;28;20207;-73
2021/07/04 02:27:30;;;;;;;6.27;5.77;;;18.30;99.90;;;;;;5016476;28;20425;-73
2021/07/04 02:30:07;;;;;;;6.70;5.97;;;18.30;99.90;;;;;;5014582;28;20477;-74
2021/07/04 02:32:39;;;;;;;5.87;5.37;;;18.20;99.90;;;;;;5014494;28;20551;-73
2021/07/04 02:35:10;;;;;;;6.00;5.20;;;18.20;99.90;;;;;;5014914;28;20545;-74
2021/07/04 02:37:39;;;;;;;5.60;5.07;;;18.20;99.90;;;;;;5014696;28;20959;-73
2021/07/04 02:40:13;;;;;;;6.83;6.23;;;18.20;99.90;;;;;;5014407;28;20497;-73
2021/07/04 02:42:45;;;;;;;6.97;6.40;;;18.20;99.90;;;;;;5015738;28;20923;-73
2021/07/04 02:45:14;;;;;;;6.20;5.70;;;18.20;99.90;;;;;;5014321;28;20458;-74
2021/07/04 02:47:46;;;;;;;7.27;6.63;;;18.10;99.90;;;;;;5014503;28;20476;-73
2021/07/04 02:50:20;;;;;;;6.13;5.63;;;18.20;99.90;;;;;;5013952;28;20535;-74
2021/07/04 02:52:49;;;;;;;5.70;5.20;;;18.20;99.90;;;;;;5015680;28;20427;-74
2021/07/04 02:55:19;;;;;;;6.90;6.20;;;18.20;99.90;;;;;;5014006;28;20467;-73
2021/07/04 02:57:48;;;;;;;5.67;5.17;;;18.20;99.90;;;;;;5014873;28;20535;-73
2021/07/04 03:00:22;;;;;;;6.87;6.27;;;18.20;99.90;;;;;;5014067;28;21021;-74
2021/07/04 03:02:51;;;;;;;6.40;5.90;;;18.20;99.90;;;;;;5014012;28;20528;-74
2021/07/04 03:05:20;;;;;;;7.03;6.33;;;18.20;99.90;;;;;;5013907;28;20454;-74
2021/07/04 03:07:49;;;;;;;7.27;6.67;;;18.20;99.90;;;;;;5014150;28;20460;-74
2021/07/04 03:10:21;;;;;;;7.70;6.43;;;18.20;99.90;;;;;;5012491;28;20492;-73
2021/07/04 03:12:52;;;;;;;7.30;6.70;;;18.10;99.90;;;;;;5006019;28;20465;-74
2021/07/04 03:15:21;;;;;;;7.63;6.93;;;18.10;99.90;;;;;;5014457;28;20466;-73
2021/07/04 03:17:49;;;;;;;6.87;6.37;;;18.10;99.90;;;;;;5015008;28;20437;-74
2021/07/04 03:20:20;;;;;;;7.55;6.85;;;18.10;99.90;;;;;;5012398;28;20454;-74
2021/07/04 03:22:56;;;;;;;6.70;6.10;;;18.10;99.90;;;;;;5014441;28;20200;-73
2021/07/04 03:25:26;;;;;;;6.60;6.07;;;18.20;99.90;;;;;;5015167;28;20465;-73
2021/07/04 03:27:54;;;;;;;6.87;6.20;;;18.20;99.90;;;;;;5014755;28;20873;-74
2021/07/04 03:30:24;;;;;;;7.17;6.47;;;18.10;99.90;;;;;;5013888;28;20483;-73
2021/07/04 03:32:54;;;;;;;6.90;6.40;;;18.10;99.90;;;;;;5013157;28;20465;-73
2021/07/04 03:35:28;;;;;;;8.00;7.20;;;18.10;99.90;;;;;;5010938;28;20476;-73
2021/07/04 03:38:00;;;;;;;7.67;6.97;;;18.10;99.90;;;;;;5013332;28;20454;-73
2021/07/04 03:40:29;;;;;;;7.20;6.60;;;18.10;99.90;;;;;;5013074;28;20491;-73
2021/07/04 03:43:08;;;;;;;7.23;6.63;;;18.10;99.90;;;;;;5013174;28;20808;-73
2021/07/04 03:45:40;;;;;;;7.33;6.60;;;18.20;99.90;;;;;;5013236;28;20424;-74
2021/07/04 03:48:10;;;;;;;8.00;7.30;;;18.10;99.90;;;;;;5013672;28;20444;-73
2021/07/04 03:50:45;;;;;;;8.47;7.00;;;18.20;99.90;;;;;;5013070;28;20990;-74
2021/07/04 03:53:14;;;;;;;8.10;7.40;;;18.10;99.90;;;;;;5014805;28;20459;-74
2021/07/04 03:55:47;;;;;;;7.23;6.63;;;18.20;99.90;;;;;;5013032;28;20467;-74
2021/07/04 03:58:17;;;;;;;6.97;6.37;;;18.20;99.90;;;;;;5013289;28;20454;-73
2021/07/04 04:00:46;;;;;;;7.40;6.73;;;18.20;99.90;;;;;;5013037;28;20474;-74
2021/07/04 04:03:22;;;;;;;7.80;7.20;;;18.20;99.90;;;;;;5015225;28;20420;-73
2021/07/04 04:06:03;;;;;;;8.73;7.83;;;18.20;99.90;;;;;;5012652;28;20461;-73
2021/07/04 04:08:45;;;;;;;7.13;6.13;;;18.20;99.90;;;;;;5013150;28;20842;-74
2021/07/04 04:11:21;;;;;;;8.57;7.77;;;18.20;99.90;;;;;;5012677;28;20549;-74
2021/07/04 04:13:59;;;;;;;7.57;6.97;;;18.20;99.90;;;;;;5014263;28;20416;-74
2021/07/04 04:16:27;;;;;;;9.30;8.50;;;18.20;99.90;;;;;;5012634;28;21047;-73
2021/07/04 04:18:55;;;;;;;8.70;7.95;;;18.20;99.90;;;;;;5013130;28;20434;-73
2021/07/04 04:21:25;;;;;;;9.13;8.30;;;18.30;99.90;;;;;;5013865;28;20195;-74
2021/07/04 04:23:59;;;;;;;8.50;7.77;;;18.20;99.90;;;;;;5012504;28;20457;-73
2021/07/04 04:26:29;;;;;;;8.80;8.03;;;18.20;99.90;;;;;;5012087;28;20814;-74
2021/07/04 04:28:59;;;;;;;11.20;9.10;;;18.20;99.90;;;;;;5008586;28;20463;-73
2021/07/04 04:31:28;;;;;;;8.90;8.10;;;18.20;99.90;;;;;;5010017;28;20445;-74
2021/07/04 04:33:58;;;;;;;10.10;9.23;;;18.10;99.90;;;;;;5012504;28;20436;-74
2021/07/04 04:36:26;;;;;;;8.97;8.07;;;18.20;99.90;;;;;;5012233;28;20479;-74
2021/07/04 04:38:54;;;;;;;8.80;8.00;;;18.20;99.90;;;;;;5012999;28;20547;-74
2021/07/04 04:41:22;;;;;;;8.97;8.20;;;18.20;99.90;;;;;;5012139;28;20453;-73
2021/07/04 04:43:52;;;;;;;8.90;8.13;;;18.10;99.90;;;;;;5012205;28;20423;-73
2021/07/04 04:46:20;;;;;;;9.10;8.30;;;18.10;99.90;;;;;;5011692;28;20489;-74
2021/07/04 04:48:48;;;;;;;9.27;8.37;;;18.00;99.90;;;;;;5010448;28;20454;-74
2021/07/04 04:51:16;;;;;;;8.67;7.93;;;18.00;99.90;;;;;;5011754;28;20902;-73
2021/07/04 04:53:44;;;;;;;10.10;8.03;;;18.10;99.90;;;;;;5012248;28;20456;-73
2021/07/04 04:56:12;;;;;;;9.07;8.13;;;18.10;99.90;;;;;;5011968;28;20480;-73
2021/07/04 04:58:40;;;;;;;8.70;8.03;;;18.10;99.90;;;;;;5013573;28;20787;-73
2021/07/04 05:01:10;;;;;;;8.47;7.77;;;18.10;99.90;;;;;;5011906;28;20562;-74
2021/07/04 05:03:38;;;;;;;9.10;8.30;;;18.10;99.90;;;;;;5012262;28;20804;-74
2021/07/04 05:06:06;;;;;;;11.20;8.03;;;18.10;99.90;;;;;;5013824;28;20956;-73
2021/07/04 05:08:37;;;;;;;9.13;8.23;;;18.10;99.90;;;;;;5013587;28;20428;-73
2021/07/04 05:11:07;;;;;;;10.05;9.25;;;18.10;99.90;;;;;;5010391;28;20449;-73
2021/07/04 05:13:36;;;;;;;9.37;8.67;;;18.20;99.90;;;;;;5012532;28;20656;-74
2021/07/04 05:16:05;;;;;;;9.23;8.40;;;18.20;99.90;;;;;;5013415;28;20457;-73
2021/07/04 05:18:35;;;;;;;9.80;8.90;;;18.20;99.90;;;;;;5011598;28;20566;-73
2021/07/04 05:21:04;;;;;;;9.73;8.83;;;18.30;99.90;;;;;;5012174;28;20342;-73
2021/07/04 05:23:32;;;;;;;9.80;9.00;;;18.30;99.90;;;;;;5011788;28;20445;-73
2021/07/04 05:26:00;;;;;;;8.67;7.83;;;18.30;99.90;;;;;;5011809;28;20444;-74
2021/07/04 05:28:29;;;;;;;10.27;9.30;;;18.30;99.90;;;;;;5013372;28;20441;-73
2021/07/04 05:30:57;;;;;;;9.40;8.50;;;18.30;99.90;;;;;;5012857;28;20569;-74
2021/07/04 05:33:25;;;;;;;10.33;9.33;;;18.30;99.90;;;;;;5011850;28;20503;-73
2021/07/04 05:35:55;;;;;;;9.63;8.83;;;18.30;99.90;;;;;;5011803;28;20456;-74
2021/07/04 05:38:30;;;;;;;10.03;9.13;;;18.30;99.90;;;;;;5012827;28;20504;-73
2021/07/04 05:40:58;;;;;;;10.13;9.37;;;18.30;99.90;;;;;;5012819;28;20474;-72
2021/07/04 05:43:26;;;;;;;10.00;9.23;;;18.40;99.90;;;;;;5013522;28;20476;-72
2021/07/04 05:45:55;;;;;;;9.30;8.50;;;18.40;99.90;;;;;;5013492;28;20519;-73
2021/07/04 05:48:26;;;;;;;10.73;9.47;;;18.40;99.90;;;;;;5012998;28;20427;-74
2021/07/04 05:50:56;;;;;;;9.90;9.10;;;18.50;99.90;;;;;;5013094;28;20497;-74
2021/07/04 05:53:25;;;;;;;9.93;9.13;;;18.50;99.90;;;;;;5011666;28;20453;-73
2021/07/04 05:55:53;;;;;;;10.40;9.50;;;18.60;99.90;;;;;;5009172;28;20455;-74
2021/07/04 05:58:21;;;;;;;10.13;9.27;;;18.60;99.90;;;;;;5013297;28;20497;-74
2021/07/04 06:00:50;;;;;;;10.43;9.43;;;18.70;99.90;;;;;;5014995;28;20527;-73
2021/07/04 06:03:18;;;;;;;10.13;9.23;;;18.80;99.90;;;;;;5014975;28;20460;-74
2021/07/04 06:05:46;;;;;;;8.90;8.20;;;18.80;99.90;;;;;;5014954;28;20460;-74
2021/07/04 06:08:16;;;;;;;10.13;9.23;;;18.90;99.90;;;;;;5014869;28;20450;-73
2021/07/04 06:10:45;;;;;;;10.48;9.60;;;19.00;99.90;;;;;;5015092;28;20446;-74
2021/07/04 06:13:13;;;;;;;9.00;8.27;;;19.10;99.90;;;;;;5015463;28;20232;-73
2021/07/04 06:15:41;;;;;;;9.77;8.97;;;19.10;99.90;;;;;;5015977;28;20474;-74
2021/07/04 06:18:09;;;;;;;9.75;8.95;;;19.10;99.90;;;;;;5016051;28;20847;-74
2021/07/04 06:20:37;;;;;;;11.13;10.23;;;19.20;99.90;;;;;;5015852;28;20207;-74
2021/07/04 06:23:06;;;;;;;8.87;8.17;;;19.20;99.90;;;;;;5014693;28;20535;-74
2021/07/04 06:25:35;;;;;;;10.50;9.67;;;19.20;99.90;;;;;;5014580;28;20805;-73
2021/07/04 06:28:03;;;;;;;9.70;8.90;;;19.30;99.90;;;;;;5016026;28;20533;-73
2021/07/04 06:30:32;;;;;;;9.10;8.40;;;19.30;99.90;;;;;;5014444;28;20464;-73
2021/07/04 06:33:00;;;;;;;9.40;8.70;;;19.30;99.90;;;;;;5014409;28;20557;-73
2021/07/04 06:35:32;;;;;;;9.80;8.93;;;19.40;99.90;;;;;;5012132;28;20870;-74
2021/07/04 06:38:00;;;;;;;11.60;10.50;;;19.40;99.90;;;;;;5014511;28;20470;-73
2021/07/04 06:40:28;;;;;;;10.10;9.20;;;19.50;99.90;;;;;;5014618;28;20574;-74
2021/07/04 06:42:57;;;;;;;11.20;10.30;;;19.50;99.90;;;;;;5014302;28;21017;-73
2021/07/04 06:45:25;;;;;;;11.67;10.47;;;19.60;99.90;;;;;;4997812;28;20444;-73
2021/07/04 06:47:54;;;;;;;10.63;9.63;;;19.60;99.90;;;;;;5004481;28;20490;-74
2021/07/04 06:50:22;;;;;;;13.63;10.90;;;19.70;99.90;;;;;;5015643;28;20456;-74
2021/07/04 06:52:51;;;;;;;11.67;10.77;;;19.80;99.90;;;;;;5015301;28;21018;-74
2021/07/04 06:55:20;;;;;;;10.47;9.60;;;19.90;99.90;;;;;;5005122;28;20952;-73
2021/07/04 06:57:50;;;;;;;11.30;10.00;;;19.90;99.90;;;;;;5014051;28;20570;-73
2021/07/04 07:00:20;;;;;;;10.67;9.77;;;20.00;99.90;;;;;;5013800;28;20979;-74
2021/07/04 07:02:48;;;;;;;10.67;9.77;;;20.10;99.90;;;;;;4993993;28;20956;-74
2021/07/04 07:05:19;;;;;;;11.93;10.83;;;20.10;99.90;;;;;;4994137;28;20454;-74
2021/07/04 07:07:47;;;;;;;11.30;10.30;;;20.20;99.90;;;;;;4996096;28;20501;-73
2021/07/04 07:21:53;;;;;;;11.40;10.50;;;20.50;99.90;;;;;;4997217;28;21062;-75
2021/07/04 07:24:21;;;;;;;11.53;10.43;;;20.60;99.90;;;;;;4978234;28;20526;-75
2021/07/04 07:26:51;;;;;;;12.00;10.63;;;20.60;99.90;;;;;;5000541;28;20444;-75
2021/07/04 07:29:20;;;;;;;12.03;10.87;;;20.60;99.90;;;;;;4999973;28;20466;-74
2021/07/04 07:31:49;;;;;;;13.40;12.00;;;20.70;99.90;;;;;;4983560;28;20530;-74
2021/07/04 07:34:17;;;;;;;11.73;10.73;;;20.70;99.90;;;;;;4999353;28;20449;-75
2021/07/04 07:36:46;;;;;;;11.60;10.60;;;20.70;99.90;;;;;;4979017;28;21042;-75
2021/07/04 07:39:15;;;;;;;12.80;11.60;;;20.70;99.90;;;;;;4995211;28;20487;-74
2021/07/04 07:41:45;;;;;;;13.00;11.57;;;20.80;99.90;;;;;;4977530;28;20451;-75
2021/07/04 07:44:14;;;;;;;15.10;12.47;;;20.80;99.90;;;;;;4995706;28;20527;-75
2021/07/04 07:46:49;;;;;;;13.50;12.20;;;20.80;99.90;;;;;;4975781;28;20452;-75
2021/07/04 07:49:18;;;;;;;12.67;11.57;;;20.80;99.90;;;;;;4994904;28;21047;-75
2021/07/04 07:51:50;;;;;;;14.23;12.87;;;20.80;99.90;;;;;;4977531;28;20849;-75
2021/07/04 07:54:27;;;;;;;14.33;13.03;;;20.90;99.90;;;;;;4977691;28;20468;-75
2021/07/04 07:56:55;;;;;;;14.17;12.97;;;20.90;99.90;;;;;;4995654;28;20443;-75
2021/07/04 07:59:30;;;;;;;13.40;12.20;;;21.00;99.90;;;;;;4994789;28;20519;-75
2021/07/04 08:05:44;;;;;;;14.83;13.53;;;21.00;99.90;;;;;;4993968;28;20445;-75
2021/07/04 08:08:13;;;;;;;14.32;12.93;;;21.10;99.90;;;;;;4977270;28;20444;-76
2021/07/04 08:10:43;;;;;;;12.53;11.33;;;21.10;99.90;;;;;;4977198;28;20226;-75
2021/07/04 08:13:11;;;;;;;15.80;12.17;;;21.20;99.90;;;;;;4976948;28;20527;-74
2021/07/04 08:15:41;;;;;;;13.83;12.53;;;21.30;99.90;;;;;;4977846;28;20451;-75
2021/07/04 08:18:09;;;;;;;14.70;13.40;;;21.30;99.90;;;;;;4994242;28;20497;-75
2021/07/04 08:23:51;;;;;;;13.30;12.10;;;21.50;99.90;;;;;;4993265;28;20465;-75
2021/07/04 08:26:23;;;;;;;16.23;14.30;;;21.60;99.90;;;;;;4994833;28;20543;-75
2021/07/04 08:28:52;;;;;;;14.60;13.30;;;21.70;99.90;;;;;;4977943;28;20480;-74
2021/07/04 08:31:21;;;;;;;14.33;13.10;;;21.70;99.90;;;;;;4976754;28;20788;-75
2021/07/04 08:33:50;;;;;;;14.83;13.47;;;21.80;99.90;;;;;;4994026;28;20449;-75
2021/07/04 08:36:18;;;;;;;13.73;12.40;;;21.90;99.90;;;;;;4977781;28;20560;-75
2021/07/04 08:38:46;;;;;;;12.30;11.00;;;22.00;99.90;;;;;;4994415;28;20516;-75
2021/07/04 08:41:15;;;;;;;12.70;11.43;;;22.10;99.90;;;;;;4993841;28;20459;-75
2021/07/04 08:43:45;;;;;;;12.43;11.33;;;22.10;99.90;;;;;;4993883;28;20444;-75
2021/07/04 08:46:13;;;;;;;10.77;9.80;;;22.20;99.90;;;;;;4993908;28;20441;-75
2021/07/04 08:48:42;;;;;;;11.40;10.33;;;22.30;99.90;;;;;;4993942;28;20530;-75
2021/07/04 08:51:12;;;;;;;12.47;11.40;;;22.30;99.90;;;;;;4974463;28;20493;-74
2021/07/04 08:53:40;;;;;;;13.30;12.10;;;22.40;99.90;;;;;;4973922;28;20453;-75
2021/07/04 08:56:09;;;;;;;12.53;11.43;;;22.40;99.90;;;;;;5006383;28;20468;-75
2021/07/04 08:58:37;;;;;;;11.10;10.07;;;22.40;99.90;;;;;;5000693;28;20560;-74
2021/07/04 09:01:28;;;;;;;11.27;10.03;;;22.40;99.90;;;;;;4996158;28;20429;-75
2021/07/04 09:04:09;;;;;;;11.02;10.13;;;22.40;99.90;;;;;;4976468;28;20542;-75
2021/07/04 09:06:39;;;;;;;11.30;9.97;;;22.40;99.90;;;;;;4992352;28;20555;-75
2021/07/04 09:09:15;;;;;;;10.87;9.97;;;22.40;99.90;;;;;;4995575;28;20473;-75
2021/07/04 09:12:02;;;;;;;12.70;11.63;;;22.40;99.90;;;;;;4976231;28;20463;-74
2021/07/04 09:14:37;;;;;;;13.32;12.20;;;22.50;99.90;;;;;;4976921;28;20537;-75
2021/07/04 09:17:35;;;;;;;12.60;11.50;;;22.50;99.90;;;;;;4980074;28;20602;-75
2021/07/04 09:20:07;;;;;;;11.27;10.17;;;22.50;99.90;;;;;;4995660;28;20488;-75
2021/07/04 09:22:40;;;;;;;11.97;10.87;;;22.50;99.90;;;;;;4999059;28;20448;-74
2021/07/04 09:25:12;;;;;;;10.33;9.10;;;22.50;99.90;;;;;;4986763;28;20507;-74
2021/07/04 09:27:44;;;;;;;8.97;8.23;;;22.50;99.90;;;;;;5000021;28;20449;-74
2021/07/04 09:30:17;;;;;;;7.70;7.10;;;22.40;99.90;;;;;;4995585;28;20465;-74
2021/07/04 09:32:50;;;;;;;8.47;7.77;;;22.40;99.90;;;;;;4997483;28;20439;-74
2021/07/04 09:35:20;;;;;;;7.63;7.03;;;22.40;99.90;;;;;;4983200;28;20520;-74
2021/07/04 09:37:51;;;;;;;9.10;8.07;;;22.40;99.90;;;;;;5006473;28;20529;-74
2021/07/04 09:40:24;;;;;;;7.77;7.07;;;22.50;99.90;;;;;;4981531;28;20485;-74
2021/07/04 09:43:05;;;;;;;6.83;6.23;;;22.50;99.90;;;;;;4998025;28;20456;-74
2021/07/04 09:45:47;;;;;;;8.40;6.50;;;22.50;99.90;;;;;;4986217;28;20433;-74
2021/07/04 09:48:19;;;;;;;5.50;5.10;;;22.50;99.90;;;;;;4986193;28;20472;-74
2021/07/04 09:50:50;;;;;;;6.93;5.83;;;22.50;99.90;;;;;;4982691;28;20534;-74
2021/07/04 09:53:19;;;;;;;4.60;4.20;;;22.60;99.90;;;;;;5004566;28;20936;-74
2021/07/04 09:55:51;;;;;;;4.73;4.33;;;22.60;99.90;;;;;;5002029;28;20511;-74
2021/07/04 09:58:20;;;;;;;5.13;4.73;;;22.60;99.90;;;;;;4999563;28;20421;-75
2021/07/04 10:00:48;;;;;;;5.10;4.60;;;22.60;99.90;;;;;;4997127;28;20456;-74
2021/07/04 10:03:19;;;;;;;4.27;3.87;;;22.60;99.90;;;;;;4998178;28;20941;-74
2021/07/04 10:06:02;;;;;;;3.80;3.50;;;22.60;99.90;;;;;;4982342;28;20445;-74
2021/07/04 10:08:33;;;;;;;4.17;3.87;;;22.60;99.90;;;;;;5005653;28;20429;-74
2021/07/04 10:11:05;;;;;;;4.10;3.70;;;22.60;99.90;;;;;;5001313;28;20540;-74
2021/07/04 10:13:36;;;;;;;4.47;4.07;;;22.60;99.90;;;;;;4996627;28;20516;-74
2021/07/04 10:16:06;;;;;;;4.47;4.17;;;22.60;99.90;;;;;;4999247;28;20422;-75
2021/07/04 10:18:38;;;;;;;4.43;3.90;;;22.60;99.90;;;;;;5002296;28;20453;-74
2021/07/04 10:21:06;;;;;;;3.73;3.43;;;22.70;99.90;;;;;;4997555;28;20476;-74
2021/07/04 10:23:35;;;;;;;4.40;4.00;;;22.70;99.90;;;;;;4978486;28;20453;-74
2021/07/04 10:26:04;;;;;;;5.00;4.60;;;22.70;99.90;;;;;;5001121;28;20464;-74
2021/07/04 10:28:35;;;;;;;6.10;5.50;;;22.70;99.90;;;;;;4984340;28;20450;-74
2021/07/04 10:31:08;;;;;;;7.10;6.53;;;22.80;99.90;;;;;;4979544;28;20532;-74
2021/07/04 10:33:39;;;;;;;5.17;4.67;;;22.80;99.90;;;;;;4983217;28;20918;-74
2021/07/04 10:36:14;;;;;;;6.50;5.90;;;22.80;99.90;;;;;;4980033;28;20449;-74
2021/07/04 10:38:57;;;;;;;6.37;5.77;;;22.80;99.90;;;;;;4978705;28;20432;-74
2021/07/04 10:41:28;;;;;;;7.30;5.87;;;22.80;99.90;;;;;;4978506;28;20919;-74
2021/07/04 10:44:06;;;;;;;6.70;5.47;;;22.80;99.90;;;;;;4996116;28;20426;-74
2021/07/04 10:47:06;;;;;;;5.63;5.13;;;22.80;99.90;;;;;;4985262;28;20445;-73
2021/07/04 10:49:40;;;;;;;5.20;4.80;;;22.80;99.90;;;;;;4981864;28;20543;-74
2021/07/04 10:52:15;;;;;;;5.40;5.00;;;22.80;99.90;;;;;;4998286;28;20460;-74
2021/07/04 10:54:55;;;;;;;4.70;4.30;;;22.80;99.90;;;;;;4996768;28;20444;-75
2021/07/04 10:57:29;;;;;;;4.20;3.90;;;22.80;99.90;;;;;;4980584;28;20544;-74
2021/07/04 11:00:34;;;;;;;6.20;5.70;;;22.80;99.90;;;;;;4996934;28;20571;-74
2021/07/04 11:03:04;;;;;;;5.90;5.30;;;22.90;99.90;;;;;;4975970;28;20529;-73
2021/07/04 11:05:48;;;;;;;8.23;7.43;;;22.90;99.90;;;;;;4976555;28;20935;-74
2021/07/04 11:08:26;;;;;;;7.90;7.30;;;23.00;99.90;;;;;;4980103;28;20471;-73
2021/07/04 11:11:09;;;;;;;7.77;7.07;;;23.00;99.90;;;;;;4979692;28;20512;-73
2021/07/04 11:13:46;;;;;;;7.90;7.20;;;23.00;99.90;;;;;;4996251;28;20437;-74
2021/07/04 11:16:26;;;;;;;8.20;7.50;;;23.10;99.90;;;;;;4980169;28;20981;-73
2021/07/04 11:19:06;;;;;;;8.43;7.23;;;23.20;99.90;;;;;;4979574;28;20530;-73
2021/07/04 11:22:05;;;;;;;9.70;8.80;;;23.20;99.90;;;;;;4984172;28;20456;-74
2021/07/04 11:24:34;;;;;;;10.50;9.60;;;23.30;99.90;;;;;;4949119;28;20463;-74
2021/07/04 11:27:27;;;;;;;10.93;10.13;;;23.40;99.90;;;;;;5000830;28;20533;-74
2021/07/04 11:30:25;;;;;;;10.47;9.67;;;23.50;99.90;;;;;;4996997;28;20904;-74
2021/07/04 11:33:29;;;;;;;11.93;10.70;;;23.60;99.90;;;;;;4979484;28;20990;-74
2021/07/04 11:36:01;;;;;;;12.33;11.23;;;23.70;99.90;;;;;;4978904;28;20422;-75
2021/07/04 11:38:33;;;;;;;10.73;9.73;;;23.70;99.90;;;;;;4978679;28;20422;-76
2021/07/04 11:41:02;;;;;;;12.70;11.60;;;23.80;99.90;;;;;;4958502;28;20518;-75
2021/07/04 11:43:31;;;;;;;12.20;11.10;;;23.90;99.90;;;;;;4958162;28;20469;-74
2021/07/04 11:46:02;;;;;;;11.70;10.70;;;24.00;99.90;;;;;;4994371;28;20484;-75
2021/07/04 11:48:50;;;;;;;9.67;8.77;;;24.20;99.90;;;;;;4977668;28;20442;-75
2021/07/04 11:51:27;;;;;;;6.87;6.27;;;24.30;99.90;;;;;;4995888;28;20453;-74
2021/07/04 11:53:59;;;;;;;13.10;11.80;;;24.40;99.90;;;;;;4977851;28;20531;-75
2021/07/04 11:56:28;;;;;;;13.93;12.47;;;24.60;99.90;;;;;;4995646;28;20480;-75
2021/07/04 11:59:15;;;;;;;6.70;6.10;;;24.60;99.90;;;;;;4995819;28;20460;-73
2021/07/04 12:01:52;;;;;;;7.73;7.03;;;24.70;99.90;;;;;;4993367;28;20472;-74
2021/07/04 12:04:30;;;;;;;9.63;8.80;;;24.70;99.90;;;;;;4997534;28;20421;-75
2021/07/04 12:07:07;;;;;;;9.00;8.20;;;24.70;99.90;;;;;;4994545;28;20453;-75
2021/07/04 12:09:43;;;;;;;10.67;9.83;;;24.70;99.90;;;;;;4995207;28;20649;-75
2021/07/04 12:12:18;;;;;;;11.33;10.23;;;24.70;99.90;;;;;;4976984;28;20968;-73
2021/07/04 12:14:48;;;;;;;11.07;10.17;;;24.70;99.90;;;;;;4994666;28;20418;-74
2021/07/04 12:17:22;;;;;;;10.57;9.77;;;24.70;99.90;;;;;;4996084;28;20439;-74
2021/07/04 12:20:07;;;;;;;11.23;10.30;;;24.70;99.90;;;;;;4977342;28;20575;-74
2021/07/04 12:22:38;;;;;;;10.53;9.63;;;24.70;99.90;;;;;;4995647;28;20421;-74
2021/07/04 12:25:13;;;;;;;9.80;9.00;;;24.80;99.90;;;;;;4977290;28;20453;-74
2021/07/04 12:27:44;;;;;;;10.07;9.27;;;24.80;99.90;;;;;;4994100;28;20452;-74
2021/07/04 12:30:19;;;;;;;10.73;9.90;;;24.80;99.90;;;;;;4994339;28;20461;-73
2021/07/04 12:32:49;;;;;;;11.37;10.37;;;24.80;99.90;;;;;;4976964;28;20437;-72
2021/07/04 12:35:27;;;;;;;10.70;9.80;;;24.90;99.90;;;;;;4994295;28;20458;-73
2021/07/04 12:37:58;;;;;;;12.10;11.00;;;24.90;99.90;;;;;;4994504;28;20621;-73
2021/07/04 12:40:30;;;;;;;11.00;9.97;;;24.90;99.90;;;;;;4993587;28;20485;-73
2021/07/04 12:43:11;;;;;;;9.53;8.63;;;24.80;99.90;;;;;;4995411;28;20460;-73
2021/07/04 12:45:45;;;;;;;10.23;9.32;;;24.90;99.90;;;;;;4993364;28;20445;-74
2021/07/04 12:48:14;;;;;;;10.77;9.87;;;24.90;99.90;;;;;;4975744;28;20195;-73
2021/07/04 12:50:49;;;;;;;10.73;9.83;;;24.90;99.90;;;;;;4993621;28;20461;-73
2021/07/04 12:53:18;;;;;;;9.57;8.77;;;25.00;99.90;;;;;;4993526;28;20439;-73
2021/07/04 12:55:51;;;;;;;8.73;8.03;;;25.10;99.90;;;;;;4994276;28;20469;-73
2021/07/04 12:58:27;;;;;;;10.43;9.47;;;25.10;99.90;;;;;;4976353;28;20499;-73
2021/07/04 13:01:08;;;;;;;9.03;8.23;;;25.20;99.90;;;;;;4993530;28;20969;-74
2021/07/04 13:03:44;;;;;;;8.67;7.97;;;25.30;99.90;;;;;;4993963;28;20472;-74
2021/07/04 13:06:35;;;;;;;8.50;7.80;;;25.30;99.90;;;;;;4976773;28;20913;-74
2021/07/04 13:09:06;;;;;;;8.53;7.83;;;25.30;99.90;;;;;;4979539;28;20510;-74
2021/07/04 13:11:38;;;;;;;8.13;7.53;;;25.30;99.90;;;;;;4999662;28;20554;-74
2021/07/04 13:14:07;;;;;;;8.23;7.53;;;25.40;99.90;;;;;;4998023;28;20452;-74
2021/07/04 13:16:50;;;;;;;8.33;7.73;;;25.30;99.90;;;;;;4994039;28;20460;-74
2021/07/04 13:19:20;;;;;;;8.30;7.60;;;25.30;99.90;;;;;;4998619;28;20546;-74
2021/07/04 13:21:49;;;;;;;7.20;6.60;;;25.30;99.90;;;;;;4997398;28;20476;-75
2021/07/04 13:24:20;;;;;;;7.53;6.93;;;25.20;99.90;;;;;;4979954;28;20826;-74